Time;durP1;ratioP1;P1;durP2;ratioP2;P2;SDS_P1;SDS_P2;PMS_P1;PMS_P2;Temp;Humidity;BMP_temperature;BMP_pressure;BME280_temperature;BME280_humidity;BME280_pressure;Samples;Min_cycle;Max_cycle;Signal;HPM_P1;HPM_P2
2023/09/26 00:01:00;;;;;;;2.53;1.90;;;;;;;15.82;79.91;101336.72;5148551;27;20131;-62
2023/09/26 00:03:26;;;;;;;1.20;1.10;;;;;;;15.81;80.12;101337.63;5148320;27;20030;-62
2023/09/26 00:05:54;;;;;;;3.50;1.35;;;;;;;15.74;80.24;101329.88;5148274;27;20031;-61
2023/09/26 00:08:19;;;;;;;3.95;1.95;;;;;;;15.73;80.13;101342.97;5148448;27;20041;-61
2023/09/26 00:10:47;;;;;;;2.95;1.20;;;;;;;15.70;80.13;101337.78;5148375;27;20542;-62
2023/09/26 00:13:14;;;;;;;2.95;1.52;;;;;;;15.71;80.21;101344.75;5148410;27;20019;-63
2023/09/26 00:15:39;;;;;;;4.78;1.27;;;;;;;15.72;80.40;101344.72;5148352;27;20039;-62
2023/09/26 00:18:08;;;;;;;3.20;1.95;;;;;;;15.65;80.14;101343.09;5148218;27;20226;-61
2023/09/26 00:20:38;;;;;;;3.72;2.05;;;;;;;15.60;80.45;101345.78;5148088;27;20023;-62
2023/09/26 00:23:05;;;;;;;2.03;1.40;;;;;;;15.60;80.23;101347.53;5148104;27;20019;-61
2023/09/26 00:25:30;;;;;;;1.55;1.20;;;;;;;15.64;80.40;101343.97;5146568;27;20047;-62
2023/09/26 00:27:56;;;;;;;3.00;1.40;;;;;;;15.67;80.55;101348.31;5147970;27;20034;-62
2023/09/26 00:30:24;;;;;;;6.95;1.73;;;;;;;15.67;80.86;101346.53;5148045;27;20040;-61
2023/09/26 00:32:49;;;;;;;4.68;2.28;;;;;;;15.68;81.08;101348.28;5147908;27;20038;-62
2023/09/26 00:35:15;;;;;;;1.52;1.35;;;;;;;15.70;81.19;101335.19;5147792;27;20023;-62
2023/09/26 00:37:42;;;;;;;6.57;1.73;;;;;;;15.78;81.05;101341.16;5147785;27;20015;-61
2023/09/26 00:40:18;;;;;;;1.88;1.60;;;;;;;15.85;80.80;101347.16;5147907;27;20079;-62
2023/09/26 00:42:45;;;;;;;2.05;1.50;;;;;;;15.86;80.75;101346.28;5147733;27;20052;-60
2023/09/26 00:45:11;;;;;;;2.70;1.77;;;;;;;15.92;81.03;101345.31;5147836;27;20034;-62
2023/09/26 00:47:38;;;;;;;3.10;1.80;;;;;;;15.95;80.76;101347.88;5147759;27;20027;-62
2023/09/26 00:50:07;;;;;;;3.72;2.00;;;;;;;15.97;80.67;101353.97;5147787;27;20015;-61
2023/09/26 00:52:34;;;;;;;2.38;1.95;;;;;;;16.02;80.75;101349.56;5147547;27;20030;-62
2023/09/26 00:55:03;;;;;;;3.10;1.67;;;;;;;15.96;80.46;101333.88;5147299;27;20056;-62
2023/09/26 00:57:31;;;;;;;2.80;2.08;;;;;;;16.04;80.72;101349.53;5147422;27;20055;-62
2023/09/26 00:59:57;;;;;;;2.80;1.90;;;;;;;16.08;80.30;101359.94;5147336;27;20027;-62
2023/09/26 01:02:23;;;;;;;2.67;1.70;;;;;;;16.03;80.24;101346.03;5147216;27;20047;-61
2023/09/26 01:04:49;;;;;;;1.65;1.23;;;;;;;16.07;80.32;101350.31;5147479;27;20023;-62
2023/09/26 01:07:14;;;;;;;1.75;1.35;;;;;;;16.12;80.37;101349.41;5147412;27;20030;-62
2023/09/26 01:09:40;;;;;;;2.00;1.40;;;;;;;16.14;80.17;101347.59;5147327;27;20459;-61
2023/09/26 01:12:05;;;;;;;2.92;1.70;;;;;;;16.13;79.70;101345.88;5147467;27;20011;-61
2023/09/26 01:14:31;;;;;;;1.30;1.20;;;;;;;16.11;79.99;101348.53;5146958;27;20023;-61
2023/09/26 01:16:56;;;;;;;10.20;1.95;;;;;;;16.08;79.90;101343.34;5147238;27;20025;-61
2023/09/26 01:19:22;;;;;;;2.45;1.25;;;;;;;16.09;79.87;101348.56;5147036;27;20029;-61
2023/09/26 01:21:47;;;;;;;3.00;2.03;;;;;;;16.03;79.71;101343.41;5146946;27;20425;-62
2023/09/26 01:24:13;;;;;;;1.85;1.52;;;;;;;16.04;79.69;101345.13;5146543;27;20059;-61
2023/09/26 01:26:38;;;;;;;1.60;1.23;;;;;;;15.98;79.81;101343.50;5146662;27;20075;-62
2023/09/26 01:29:06;;;;;;;1.95;1.27;;;;;;;15.97;79.77;101351.34;5146986;27;20027;-62
2023/09/26 01:31:34;;;;;;;2.13;1.92;;;;;;;15.92;80.03;101350.53;5146946;27;20034;-61
2023/09/26 01:34:00;;;;;;;2.60;1.95;;;;;;;15.89;80.05;101347.97;5146726;27;20015;-62
2023/09/26 01:36:27;;;;;;;2.67;1.83;;;;;;;15.90;79.93;101350.56;5146549;27;20444;-61
2023/09/26 01:38:53;;;;;;;3.17;1.80;;;;;;;15.89;80.13;101351.47;5146458;27;20049;-60
2023/09/26 01:41:19;;;;;;;2.60;1.65;;;;;;;15.91;79.87;101354.06;5146606;27;20019;-62
2023/09/26 01:43:44;;;;;;;4.38;2.28;;;;;;;15.89;79.94;101347.97;5127926;27;20443;-61
2023/09/26 01:46:10;;;;;;;1.80;1.55;;;;;;;15.78;80.35;101351.63;5146762;27;20031;-62
2023/09/26 01:48:35;;;;;;;3.50;2.55;;;;;;;15.68;81.45;101344.78;5146387;27;20083;-63
2023/09/26 01:51:04;;;;;;;1.98;1.73;;;;;;;15.57;81.73;101358.91;5146533;27;20023;-63
2023/09/26 01:53:29;;;;;;;3.45;2.03;;;;;;;15.46;82.50;101350.34;5146142;27;20086;-61
2023/09/26 01:55:59;;;;;;;3.67;2.25;;;;;;;15.40;83.20;101359.13;5146472;27;20045;-62
2023/09/26 01:58:24;;;;;;;3.13;1.90;;;;;;;15.35;83.76;101358.34;5146310;27;20027;-62
2023/09/26 02:00:49;;;;;;;2.28;1.60;;;;;;;15.31;83.76;101357.50;5146126;27;20143;-62
2023/09/26 02:03:15;;;;;;;3.72;2.13;;;;;;;15.32;83.86;101364.47;5146228;27;20019;-62
2023/09/26 02:05:40;;;;;;;5.13;2.35;;;;;;;15.29;83.96;101354.03;5146312;27;20019;-62
2023/09/26 02:08:05;;;;;;;6.55;2.60;;;;;;;15.30;84.23;101355.78;5127864;27;20015;-62
2023/09/26 02:10:31;;;;;;;3.08;2.13;;;;;;;15.30;84.66;101361.03;5146219;27;20510;-62
2023/09/26 02:12:57;;;;;;;1.83;1.65;;;;;;;15.29;84.79;101359.28;5146186;27;20535;-61
2023/09/26 02:15:22;;;;;;;2.67;1.75;;;;;;;15.20;85.00;101343.69;5146329;27;20042;-61
2023/09/26 02:17:48;;;;;;;1.90;1.60;;;;;;;15.26;85.30;101358.44;5146404;27;20074;-62
2023/09/26 02:20:17;;;;;;;1.55;1.45;;;;;;;15.18;85.82;101348.94;5146180;28;20023;-62
2023/09/26 02:22:45;;;;;;;2.65;2.00;;;;;;;15.21;86.16;101359.38;5145975;28;20019;-61
2023/09/26 02:25:12;;;;;;;2.58;2.05;;;;;;;15.11;86.37;101345.53;5145667;28;20099;-61
2023/09/26 02:27:41;;;;;;;5.40;2.13;;;;;;;15.19;86.62;101353.28;5146242;28;20023;-61
2023/09/26 02:30:09;;;;;;;12.75;2.55;;;;;;;15.20;86.73;101354.16;5146129;28;20020;-61
2023/09/26 02:32:35;;;;;;;2.33;2.05;;;;;;;15.14;87.04;101349.88;5146013;28;20030;-62
2023/09/26 02:35:06;;;;;;;3.00;2.35;;;;;;;15.17;87.07;101354.19;5145991;28;20031;-61
2023/09/26 02:37:31;;;;;;;2.67;2.20;;;;;;;15.17;87.28;101354.19;5146421;28;20072;-61
2023/09/26 02:39:56;;;;;;;3.10;2.15;;;;;;;15.17;87.14;101344.63;5145967;28;20027;-62
2023/09/26 02:42:22;;;;;;;2.42;2.08;;;;;;;15.21;87.41;101355.88;5145923;28;20029;-61
2023/09/26 02:44:47;;;;;;;2.80;1.95;;;;;;;15.22;87.37;101352.41;5145745;28;20030;-62
2023/09/26 02:47:12;;;;;;;3.58;2.25;;;;;;;15.21;87.47;101340.19;5145806;27;20015;-61
2023/09/26 02:49:38;;;;;;;2.28;2.08;;;;;;;15.22;87.68;101334.09;5149126;27;20106;-61
2023/09/26 02:52:03;;;;;;;2.08;1.70;;;;;;;15.21;88.03;101343.69;5149917;27;20023;-62
2023/09/26 02:54:29;;;;;;;2.97;2.22;;;;;;;15.19;87.92;101349.81;5149681;27;20072;-61
2023/09/26 02:56:57;;;;;;;3.05;1.77;;;;;;;15.20;87.99;101348.94;5149680;27;20027;-62
2023/09/26 02:59:22;;;;;;;2.42;1.95;;;;;;;15.20;88.42;101355.03;5150122;27;20079;-62
2023/09/26 03:01:48;;;;;;;3.42;2.50;;;;;;;15.18;88.35;101350.69;5149452;27;20035;-62
2023/09/26 03:04:13;;;;;;;2.13;1.83;;;;;;;15.18;88.38;101342.84;5149740;27;20027;-62
2023/09/26 03:06:38;;;;;;;2.35;2.15;;;;;;;15.12;88.87;101330.72;5149787;27;20022;-62
2023/09/26 03:09:04;;;;;;;3.25;2.25;;;;;;;15.20;88.81;101356.78;5149600;27;20390;-62
2023/09/26 03:11:29;;;;;;;2.22;1.92;;;;;;;15.11;88.85;101345.53;5149794;27;20035;-61
2023/09/26 03:13:55;;;;;;;2.70;1.80;;;;;;;15.24;88.69;101361.06;5149335;27;20023;-62
2023/09/26 03:16:20;;;;;;;3.03;2.08;;;;;;;15.26;88.35;101359.31;5149574;27;20019;-63
2023/09/26 03:18:46;;;;;;;9.13;1.65;;;;;;;15.33;88.46;101355.75;5130771;27;20260;-62
2023/09/26 03:21:11;;;;;;;3.35;1.90;;;;;;;15.33;88.64;101353.13;5149382;27;20026;-62
2023/09/26 03:23:37;;;;;;;3.00;2.13;;;;;;;15.38;88.23;101346.97;5149248;27;20015;-60
2023/09/26 03:26:09;;;;;;;2.58;1.60;;;;;;;15.40;88.25;101355.66;5149134;27;20046;-63
2023/09/26 03:28:35;;;;;;;2.72;1.95;;;;;;;15.39;88.29;101351.28;5149429;27;20019;-63
2023/09/26 03:31:03;;;;;;;3.03;1.73;;;;;;;15.43;88.36;101353.84;5149272;27;20226;-63
2023/09/26 03:33:29;;;;;;;3.75;2.25;;;;;;;15.44;88.12;101357.34;5149021;27;20031;-62
2023/09/26 03:35:54;;;;;;;3.42;2.45;;;;;;;15.48;87.97;101359.00;5149200;27;20429;-62
2023/09/26 03:38:21;;;;;;;1.83;1.38;;;;;;;15.46;87.98;101348.56;5149001;27;20524;-63
2023/09/26 03:40:46;;;;;;;3.03;2.00;;;;;;;15.52;87.76;101355.50;5148990;27;20119;-62
2023/09/26 03:43:11;;;;;;;3.05;1.88;;;;;;;15.52;87.87;101350.25;5148977;27;20023;-62
2023/09/26 03:45:37;;;;;;;5.43;2.22;;;;;;;15.51;87.83;101340.66;5148906;27;20502;-62
2023/09/26 03:48:02;;;;;;;2.03;1.40;;;;;;;15.51;87.60;101345.88;5148728;27;20027;-62
2023/09/26 03:50:28;;;;;;;3.63;1.83;;;;;;;15.55;87.69;101344.97;5148805;27;20034;-62
2023/09/26 03:52:53;;;;;;;2.70;2.10;;;;;;;15.58;87.27;101346.69;5148553;27;20023;-61
2023/09/26 03:55:18;;;;;;;2.53;1.98;;;;;;;15.58;87.20;101347.56;5148527;27;20023;-62
2023/09/26 03:57:43;;;;;;;2.83;2.15;;;;;;;15.57;87.44;101348.44;5148683;27;20042;-63
2023/09/26 04:00:17;;;;;;;3.40;2.25;;;;;;;15.54;87.65;101348.50;5148449;27;20019;-62
2023/09/26 04:02:44;;;;;;;2.90;1.88;;;;;;;15.49;87.93;101345.91;5148713;27;20026;-62
2023/09/26 04:05:09;;;;;;;4.38;2.05;;;;;;;15.46;87.85;101350.34;5148639;27;20019;-62
2023/09/26 04:07:35;;;;;;;4.45;2.58;;;;;;;15.45;88.13;101348.59;5148561;27;20592;-60
2023/09/26 04:10:00;;;;;;;13.32;2.65;;;;;;;15.46;88.29;101345.13;5148291;27;20011;-61
2023/09/26 04:12:26;;;;;;;8.57;2.67;;;;;;;15.42;88.92;101339.03;5148267;27;20031;-62
2023/09/26 04:14:51;;;;;;;2.42;1.90;;;;;;;15.41;88.92;101332.09;5148215;27;20050;-61
2023/09/26 04:17:17;;;;;;;3.20;2.75;;;;;;;15.37;89.52;101335.63;5148347;27;20475;-61
2023/09/26 04:19:46;;;;;;;3.35;2.63;;;;;;;15.35;89.78;101346.09;5148269;27;20030;-61
2023/09/26 04:22:12;;;;;;;4.55;2.10;;;;;;;15.31;89.83;101344.44;5148460;27;20030;-62
2023/09/26 04:24:37;;;;;;;2.80;2.25;;;;;;;15.32;90.04;101342.69;5147844;27;20414;-61
2023/09/26 04:27:02;;;;;;;3.05;2.53;;;;;;;15.30;90.19;101340.09;5148089;27;20039;-61
2023/09/26 04:29:28;;;;;;;5.45;2.67;;;;;;;15.26;90.25;101343.63;5148157;27;20099;-61
2023/09/26 04:31:53;;;;;;;3.22;2.50;;;;;;;15.26;90.76;101338.38;5147972;27;20020;-63
2023/09/26 04:34:21;;;;;;;4.63;2.88;;;;;;;15.26;90.60;101335.78;5148015;27;20086;-62
2023/09/26 04:36:46;;;;;;;3.10;2.00;;;;;;;15.28;90.69;101339.25;5129003;27;20059;-62
2023/09/26 04:39:12;;;;;;;3.33;2.17;;;;;;;15.22;90.97;101326.25;5147688;27;20102;-60
2023/09/26 04:41:37;;;;;;;5.40;3.20;;;;;;;15.23;91.03;101335.81;5129518;27;20463;-62
2023/09/26 04:44:02;;;;;;;4.63;2.83;;;;;;;15.24;91.39;101334.91;5147841;27;20019;-61
2023/09/26 04:46:28;;;;;;;7.15;3.08;;;;;;;15.24;91.31;101330.56;5147638;27;20015;-61
2023/09/26 04:48:53;;;;;;;3.70;2.92;;;;;;;15.23;91.41;101334.06;5147722;27;20357;-62
2023/09/26 04:51:18;;;;;;;3.70;2.38;;;;;;;15.20;91.83;101333.22;5147599;27;20105;-61
2023/09/26 04:53:44;;;;;;;3.75;2.67;;;;;;;15.19;91.73;101331.53;5147252;27;20128;-62
2023/09/26 04:56:09;;;;;;;2.85;2.45;;;;;;;15.22;91.73;101328.84;5129180;27;20015;-61
2023/09/26 04:58:35;;;;;;;2.35;2.15;;;;;;;15.22;91.95;101329.69;5147399;27;20475;-62
2023/09/26 05:01:15;;;;;;;4.88;3.03;;;;;;;15.23;92.07;101330.56;5147326;27;20489;-61
2023/09/26 05:03:41;;;;;;;6.72;2.50;;;;;;;15.30;91.88;101339.22;5147439;27;20076;-61
2023/09/26 05:06:08;;;;;;;3.70;2.13;;;;;;;15.30;91.57;101337.47;5147154;27;20050;-62
2023/09/26 05:08:33;;;;;;;5.50;3.38;;;;;;;15.31;91.50;101340.94;5147409;27;20026;-61
2023/09/26 05:10:59;;;;;;;5.00;2.65;;;;;;;15.29;91.51;101330.50;5146686;27;20016;-62
2023/09/26 05:13:24;;;;;;;3.35;2.75;;;;;;;15.35;91.48;101340.88;5147263;27;20029;-61
2023/09/26 05:15:49;;;;;;;5.28;3.05;;;;;;;15.36;91.36;101334.78;5147294;27;20057;-62
2023/09/26 05:18:15;;;;;;;3.40;2.55;;;;;;;15.41;91.14;101332.09;5146955;27;20411;-62
2023/09/26 05:20:41;;;;;;;4.03;2.75;;;;;;;15.44;91.35;101342.53;5147288;27;20235;-61
2023/09/26 05:23:06;;;;;;;3.83;3.38;;;;;;;15.46;91.08;101345.13;5146918;27;20066;-61
2023/09/26 05:25:35;;;;;;;2.58;2.38;;;;;;;15.45;91.04;101348.59;5146643;27;20043;-62
2023/09/26 05:28:01;;;;;;;5.38;3.25;;;;;;;15.46;90.88;101345.13;5146964;27;20027;-62
2023/09/26 05:30:26;;;;;;;3.88;2.83;;;;;;;15.46;91.27;101347.72;5147092;27;20101;-62
2023/09/26 05:32:52;;;;;;;4.45;3.00;;;;;;;15.46;91.11;101342.50;5146737;27;20027;-61
2023/09/26 05:35:18;;;;;;;3.83;2.83;;;;;;;15.49;90.89;101350.31;5146761;27;20019;-62
2023/09/26 05:37:44;;;;;;;3.50;2.55;;;;;;;15.50;90.95;101336.31;5146707;27;20097;-61
2023/09/26 05:40:10;;;;;;;5.20;4.15;;;;;;;15.51;91.21;101335.41;5146615;27;20027;-61
2023/09/26 05:42:37;;;;;;;4.03;2.70;;;;;;;15.46;91.30;101332.03;5146882;27;20497;-61
2023/09/26 05:45:04;;;;;;;3.33;2.88;;;;;;;15.44;91.19;101334.66;5146509;27;20029;-62
2023/09/26 05:47:29;;;;;;;2.80;2.20;;;;;;;15.41;91.28;101331.22;5146423;27;20026;-61
2023/09/26 05:49:55;;;;;;;5.90;3.40;;;;;;;15.42;91.16;101338.16;5146347;27;20015;-61
2023/09/26 05:52:20;;;;;;;4.97;3.15;;;;;;;15.39;91.60;101336.47;5146634;27;20031;-61
2023/09/26 05:54:47;;;;;;;3.80;3.33;;;;;;;15.35;91.76;101338.25;5146248;27;20015;-61
2023/09/26 05:57:13;;;;;;;6.05;3.28;;;;;;;15.33;92.04;101342.66;5146380;27;20026;-61
2023/09/26 05:59:38;;;;;;;8.30;3.47;;;;;;;15.33;91.81;101354.88;5146462;27;20026;-61
2023/09/26 06:02:04;;;;;;;6.32;3.58;;;;;;;15.33;92.03;101352.25;5146338;27;20031;-61
2023/09/26 06:04:29;;;;;;;5.70;3.65;;;;;;;15.31;92.19;101356.63;5146216;27;20023;-62
2023/09/26 06:06:54;;;;;;;6.72;3.70;;;;;;;15.32;91.92;101358.38;5146281;27;20087;-61
2023/09/26 06:09:20;;;;;;;4.28;3.17;;;;;;;15.36;92.23;101363.56;5146112;27;20436;-61
2023/09/26 06:11:45;;;;;;;4.90;3.50;;;;;;;15.39;92.07;101370.50;5145860;27;20068;-62
2023/09/26 06:14:11;;;;;;;5.95;3.17;;;;;;;15.44;91.80;101380.88;5146345;27;20052;-62
2023/09/26 06:16:36;;;;;;;7.80;3.67;;;;;;;15.43;92.06;101376.56;5146680;27;20030;-62
2023/09/26 06:19:02;;;;;;;2.97;2.67;;;;;;;15.48;92.21;101379.94;5146236;27;20019;-61
2023/09/26 06:21:27;;;;;;;3.75;2.97;;;;;;;15.52;91.90;101381.66;5146188;28;20031;-62
2023/09/26 06:23:52;;;;;;;6.63;3.85;;;;;;;15.53;91.84;101382.53;5144933;27;20391;-60
2023/09/26 06:26:18;;;;;;;5.05;2.75;;;;;;;15.50;91.68;101380.81;5146394;28;20019;-61
2023/09/26 06:28:43;;;;;;;5.18;2.83;;;;;;;15.52;91.97;101372.94;5146388;28;20054;-61
2023/09/26 06:31:10;;;;;;;3.08;2.65;;;;;;;15.47;92.26;101378.22;5146329;28;20494;-62
2023/09/26 06:33:36;;;;;;;5.82;3.67;;;;;;;15.48;92.24;101379.94;5146068;28;20455;-61
2023/09/26 06:36:13;;;;;;;6.43;2.50;;;;;;;15.52;92.22;101375.56;5146423;28;20038;-61
2023/09/26 06:38:38;;;;;;;4.72;2.70;;;;;;;15.53;92.36;101367.69;5146148;28;20083;-62
2023/09/26 06:41:06;;;;;;;8.68;3.88;;;;;;;15.56;92.01;101364.16;5145644;28;20024;-62
2023/09/26 06:43:32;;;;;;;3.70;3.13;;;;;;;15.58;92.42;101375.47;5145981;28;20023;-62
2023/09/26 06:45:57;;;;;;;4.28;3.85;;;;;;;15.56;92.64;101377.25;5146035;28;20567;-61
2023/09/26 06:48:23;;;;;;;4.35;3.10;;;;;;;15.59;92.81;101380.69;5146055;28;20023;-61
2023/09/26 06:50:48;;;;;;;6.90;3.75;;;;;;;15.74;93.04;101387.47;5146155;28;20066;-62
2023/09/26 06:53:14;;;;;;;4.10;3.00;;;;;;;15.82;92.55;101389.97;5145953;28;20043;-61
2023/09/26 06:55:39;;;;;;;6.28;3.65;;;;;;;15.88;92.08;101393.38;5145916;28;20411;-62
2023/09/26 06:58:08;;;;;;;5.68;3.80;;;;;;;15.91;91.55;101393.34;5146009;28;20023;-62
2023/09/26 07:00:37;;;;;;;4.85;3.38;;;;;;;15.94;92.16;101394.13;5145865;28;20026;-62
2023/09/26 07:03:04;;;;;;;3.65;3.28;;;;;;;15.98;91.57;101398.50;5146035;28;20026;-62
2023/09/26 07:05:29;;;;;;;7.57;4.25;;;;;;;15.97;91.16;101394.13;5145884;28;20110;-62
2023/09/26 07:07:55;;;;;;;6.30;5.35;;;;;;;15.97;90.67;101393.25;5145984;28;20023;-62
2023/09/26 07:10:24;;;;;;;8.07;4.63;;;;;;;15.89;90.61;101410.81;5145487;28;20179;-61
2023/09/26 07:12:51;;;;;;;7.45;3.72;;;;;;;15.81;90.76;101403.09;5145900;28;20019;-62
2023/09/26 07:15:18;;;;;;;6.43;4.38;;;;;;;15.80;90.68;101409.22;5145813;28;20034;-61
2023/09/26 07:17:44;;;;;;;7.60;4.50;;;;;;;15.80;90.64;101417.91;5145790;28;20027;-61
2023/09/26 07:20:13;;;;;;;6.95;4.38;;;;;;;15.78;91.21;101401.38;5145626;28;20023;-62
2023/09/26 07:22:43;;;;;;;4.88;4.45;;;;;;;15.85;90.92;101408.25;5145826;28;20019;-61
2023/09/26 07:25:10;;;;;;;5.40;4.20;;;;;;;15.95;90.77;101405.50;5145279;28;20058;-62
2023/09/26 07:27:36;;;;;;;6.15;4.78;;;;;;;15.95;90.95;101405.50;5145848;28;20019;-61
2023/09/26 07:30:01;;;;;;;6.97;5.07;;;;;;;16.06;90.54;101403.59;5145756;28;20038;-61
2023/09/26 07:32:27;;;;;;;6.07;4.50;;;;;;;16.10;90.19;101407.91;5145928;28;20031;-62
2023/09/26 07:34:52;;;;;;;9.82;5.07;;;;;;;16.08;89.99;101406.22;5147229;27;20038;-62
2023/09/26 07:37:18;;;;;;;5.53;4.97;;;;;;;16.14;90.25;101403.50;5149400;27;20023;-61
2023/09/26 07:39:48;;;;;;;6.15;4.28;;;;;;;16.28;89.88;101402.41;5149036;27;20019;-62
2023/09/26 07:42:14;;;;;;;5.35;3.10;;;;;;;16.42;89.88;101396.94;5149350;27;20088;-61
2023/09/26 07:44:39;;;;;;;6.15;4.78;;;;;;;16.46;88.81;101394.22;5149038;27;20463;-62
2023/09/26 07:47:06;;;;;;;6.18;4.35;;;;;;;16.48;88.33;101407.31;5149263;27;20320;-62
2023/09/26 07:49:31;;;;;;;6.05;5.07;;;;;;;16.50;87.96;101408.16;5149039;27;20033;-62
2023/09/26 07:51:57;;;;;;;8.65;6.03;;;;;;;16.48;87.35;101404.69;5149125;27;20019;-61
2023/09/26 07:54:22;;;;;;;6.50;4.78;;;;;;;16.57;88.57;101401.91;5148681;27;20031;-62
2023/09/26 07:56:47;;;;;;;6.40;4.80;;;;;;;16.81;88.64;101401.47;5149017;27;20027;-62
2023/09/26 07:59:13;;;;;;;9.90;5.00;;;;;;;17.03;88.65;101404.56;5148868;27;20027;-62
2023/09/26 08:01:38;;;;;;;11.98;5.57;;;;;;;17.26;88.86;101419.00;5148622;27;20019;-63
2023/09/26 08:04:03;;;;;;;6.57;5.00;;;;;;;17.38;88.48;101415.25;5148727;27;20048;-62
2023/09/26 08:06:29;;;;;;;10.50;4.18;;;;;;;17.36;87.76;101413.56;5148693;27;20042;-61
2023/09/26 08:08:54;;;;;;;5.63;5.03;;;;;;;17.49;86.15;101422.06;5148692;27;20015;-62
2023/09/26 08:11:21;;;;;;;6.65;4.78;;;;;;;17.43;85.32;101407.28;5148675;27;20095;-62
2023/09/26 08:13:46;;;;;;;8.05;4.40;;;;;;;17.68;86.75;101419.91;5148455;27;20029;-62
2023/09/26 08:16:11;;;;;;;7.18;4.60;;;;;;;17.88;85.10;101422.06;5148581;27;20091;-62
2023/09/26 08:18:37;;;;;;;8.23;4.38;;;;;;;17.93;83.36;101427.22;5148511;27;20147;-62
2023/09/26 08:21:02;;;;;;;5.30;4.20;;;;;;;17.87;83.49;101427.34;5148269;27;20024;-62
2023/09/26 08:23:30;;;;;;;4.88;3.78;;;;;;;17.84;83.69;101431.78;5148367;27;20055;-62
2023/09/26 08:26:00;;;;;;;5.47;4.30;;;;;;;17.89;83.36;101422.94;5148050;27;20057;-62
2023/09/26 08:28:26;;;;;;;6.45;4.43;;;;;;;18.10;83.01;101424.19;5148311;27;20095;-62
2023/09/26 08:30:56;;;;;;;6.22;4.50;;;;;;;18.24;81.49;101436.19;5148280;27;20039;-62
2023/09/26 08:33:23;;;;;;;4.57;3.97;;;;;;;18.25;81.20;101425.63;5148341;27;20021;-62
2023/09/26 08:35:49;;;;;;;4.57;3.95;;;;;;;18.19;79.06;101431.03;5148045;27;20044;-62
2023/09/26 08:38:14;;;;;;;4.72;3.60;;;;;;;17.92;79.26;101433.38;5148077;27;20023;-62
2023/09/26 08:40:40;;;;;;;6.57;3.90;;;;;;;17.79;79.64;101432.78;5147898;27;20023;-61
2023/09/26 08:43:05;;;;;;;5.70;3.85;;;;;;;17.70;79.65;101428.59;5148097;27;20395;-62
2023/09/26 08:45:31;;;;;;;7.35;4.32;;;;;;;17.49;78.36;101425.56;5147275;27;20066;-62
2023/09/26 08:47:58;;;;;;;3.55;3.25;;;;;;;17.33;79.16;101438.97;5147460;27;20027;-62
2023/09/26 08:50:24;;;;;;;6.47;4.50;;;;;;;17.21;78.91;101433.97;5148011;27;20051;-63
2023/09/26 08:52:49;;;;;;;5.53;3.38;;;;;;;16.98;79.54;101430.03;5147798;27;20027;-62
2023/09/26 08:55:15;;;;;;;7.63;4.28;;;;;;;16.83;79.90;101426.78;5147548;27;20040;-61
2023/09/26 08:57:41;;;;;;;4.15;2.95;;;;;;;16.69;80.04;101424.41;5147843;27;20023;-62
2023/09/26 09:00:09;;;;;;;7.93;4.03;;;;;;;16.62;80.43;101424.53;5147627;27;20023;-62
2023/09/26 09:02:34;;;;;;;11.27;3.65;;;;;;;16.57;81.51;101424.63;5147756;27;20075;-62
2023/09/26 09:05:00;;;;;;;4.38;3.28;;;;;;;16.66;82.58;101424.47;5147512;27;20038;-63
2023/09/26 09:07:25;;;;;;;7.00;4.10;;;;;;;16.93;82.71;101421.38;5147512;27;20058;-63
2023/09/26 09:10:11;;;;;;;4.05;3.40;;;;;;;17.30;82.39;101428.53;5147242;27;20041;-63
2023/09/26 09:12:37;;;;;;;3.55;3.10;;;;;;;17.57;79.33;101428.00;5147523;27;20023;-63
2023/09/26 09:15:23;;;;;;;5.80;4.18;;;;;;;17.82;78.58;101423.09;5147273;27;20038;-62
2023/09/26 09:17:51;;;;;;;9.85;3.88;;;;;;;17.91;77.97;101426.38;5147008;27;20042;-62
2023/09/26 09:20:34;;;;;;;5.25;4.13;;;;;;;17.89;77.04;101417.69;5147307;27;20049;-63
2023/09/26 09:23:04;;;;;;;8.07;3.90;;;;;;;17.71;77.33;101415.44;5147200;27;20027;-62
2023/09/26 09:25:40;;;;;;;5.53;3.65;;;;;;;17.63;77.94;101419.13;5146792;27;20055;-62
2023/09/26 09:28:09;;;;;;;7.38;3.72;;;;;;;17.64;77.68;101426.97;5147253;27;20461;-62
2023/09/26 09:30:41;;;;;;;4.82;3.70;;;;;;;17.59;77.37;101426.19;5147213;27;20019;-62
2023/09/26 09:33:07;;;;;;;;;;;;;;;17.64;75.56;101426.09;5147598;27;20230;-62
2023/09/26 09:35:33;;;;;;;6.10;3.40;;;;;;;17.41;76.15;101423.06;5146946;27;19929;-62
2023/09/26 09:38:00;;;;;;;4.40;3.63;;;;;;;17.30;77.13;101420.66;5147134;27;20031;-61
2023/09/26 09:40:25;;;;;;;4.18;2.85;;;;;;;17.39;77.46;101409.13;5146926;27;20075;-62
2023/09/26 09:42:51;;;;;;;3.53;2.88;;;;;;;17.44;77.74;101412.50;5147030;27;20048;-62
2023/09/26 09:45:18;;;;;;;6.35;3.67;;;;;;;17.70;76.76;101407.56;5146513;27;20023;-62
2023/09/26 09:47:48;;;;;;;4.13;3.03;;;;;;;17.98;75.78;101406.97;5146529;27;20042;-62
2023/09/26 09:50:15;;;;;;;5.10;3.55;;;;;;;18.13;75.40;101412.78;5146725;27;20029;-62
2023/09/26 09:52:43;;;;;;;4.72;2.83;;;;;;;18.16;74.38;101412.72;5146647;27;20023;-62
2023/09/26 09:55:15;;;;;;;6.22;2.63;;;;;;;18.13;74.53;101407.53;5146291;27;20056;-62
2023/09/26 09:57:45;;;;;;;3.47;1.80;;;;;;;18.19;73.58;101410.00;5146723;27;20015;-62
2023/09/26 10:00:13;;;;;;;5.40;3.17;;;;;;;18.21;73.00;101403.81;5146610;27;20019;-62
2023/09/26 10:02:39;;;;;;;4.68;2.75;;;;;;;18.26;72.99;101398.44;5146058;27;20392;-62
2023/09/26 10:05:12;;;;;;;3.25;2.05;;;;;;;18.49;73.39;101406.63;5127579;27;20023;-62
2023/09/26 10:07:45;;;;;;;2.97;2.03;;;;;;;18.96;72.46;101395.75;5146650;27;20091;-62
2023/09/26 10:10:12;;;;;;;1.80;1.52;;;;;;;19.31;73.06;101401.78;5146315;27;20349;-62
2023/09/26 10:12:39;;;;;;;3.70;2.70;;;;;;;19.55;69.61;101403.75;5146280;27;20031;-62
2023/09/26 10:15:11;;;;;;;3.20;2.03;;;;;;;19.61;69.93;101392.16;5146466;27;20023;-62
2023/09/26 10:17:40;;;;;;;2.97;2.17;;;;;;;20.71;68.07;101390.34;5146497;27;20027;-63
2023/09/26 10:20:16;;;;;;;1.65;1.35;;;;;;;21.92;65.28;101399.97;5146274;27;20030;-63
2023/09/26 10:22:43;;;;;;;2.80;2.33;;;;;;;22.40;63.04;101407.72;5146379;28;20023;-62
2023/09/26 10:25:16;;;;;;;2.47;1.83;;;;;;;22.57;63.73;101406.13;5145656;28;20054;-63
2023/09/26 10:27:43;;;;;;;3.25;1.75;;;;;;;23.08;61.49;101401.28;5146467;28;20068;-63
2023/09/26 10:30:12;;;;;;;2.55;1.42;;;;;;;22.82;60.82;101402.44;5146059;28;20011;-62
2023/09/26 10:32:41;;;;;;;1.27;1.17;;;;;;;22.87;60.61;101398.66;5146237;28;20027;-63
2023/09/26 10:35:15;;;;;;;3.90;1.92;;;;;;;23.47;54.96;101396.84;5146054;28;20023;-62
2023/09/26 10:37:44;;;;;;;2.50;1.58;;;;;;;23.72;55.62;101402.78;5146309;28;20073;-62
2023/09/26 10:40:14;;;;;;;1.25;1.15;;;;;;;23.73;53.17;101402.72;5145690;28;20490;-62
2023/09/26 10:42:49;;;;;;;1.65;1.23;;;;;;;23.83;53.99;101397.81;5127662;28;20046;-62
2023/09/26 10:45:15;;;;;;;2.20;1.40;;;;;;;24.18;55.09;101401.47;5145868;28;20027;-62
2023/09/26 10:47:41;;;;;;;1.55;1.25;;;;;;;24.61;54.93;101404.56;5146218;28;20028;-62
2023/09/26 10:50:14;;;;;;;1.58;1.48;;;;;;;25.09;54.18;101410.97;5145983;28;20220;-62
2023/09/26 10:52:47;;;;;;;1.83;1.20;;;;;;;25.15;52.17;101402.66;5146004;28;20019;-62
2023/09/26 10:55:20;;;;;;;1.77;1.20;;;;;;;24.91;48.63;101367.66;5145548;28;20031;-62
2023/09/26 10:57:46;;;;;;;2.65;1.10;;;;;;;25.09;48.18;101392.38;5146222;28;20517;-62
2023/09/26 11:00:13;;;;;;;1.40;0.90;;;;;;;25.61;49.56;101387.75;5145801;28;20031;-62
2023/09/26 11:02:39;;;;;;;1.45;1.13;;;;;;;26.16;45.75;101382.88;5145349;28;20034;-63
2023/09/26 11:05:12;;;;;;;1.33;1.23;;;;;;;26.07;46.88;101378.94;5145794;28;20023;-62
2023/09/26 11:07:38;;;;;;;1.60;1.20;;;;;;;25.95;42.63;101377.84;5145733;28;20032;-63
2023/09/26 11:10:05;;;;;;;1.88;1.33;;;;;;;25.12;44.41;101365.63;5147883;27;20400;-63
2023/09/26 11:12:31;;;;;;;1.85;1.38;;;;;;;24.63;43.96;101369.97;5149855;27;20083;-62
2023/09/26 11:15:00;;;;;;;4.35;1.83;;;;;;;24.14;44.93;101363.59;5122516;22;20053;-63
2023/09/26 11:17:29;;;;;;;1.58;1.05;;;;;;;23.87;46.38;101367.56;5088382;28;20029;-64
2023/09/26 11:19:59;;;;;;;2.03;1.10;;;;;;;23.59;46.91;101363.63;5088171;28;20027;-65
2023/09/26 11:22:26;;;;;;;1.60;1.25;;;;;;;23.43;48.50;101373.22;5088336;28;20449;-65